sensor_id;sensor_type;location;lat;lon;timestamp;P1;durP1;ratioP1;P2;durP2;ratioP2
10963;SDS011;5534;48.784;9.190;2022-10-31T00:00:21;5.47;;;2.88;;
10963;SDS011;5534;48.784;9.190;2022-10-31T00:02:46;5.20;;;2.95;;
10963;SDS011;5534;48.784;9.190;2022-10-31T00:05:12;4.22;;;2.88;;
10963;SDS011;5534;48.784;9.190;2022-10-31T00:07:38;5.35;;;3.00;;
10963;SDS011;5534;48.784;9.190;2022-10-31T00:10:04;4.75;;;2.95;;
10963;SDS011;5534;48.784;9.190;2022-10-31T00:12:30;5.40;;;2.97;;
10963;SDS011;5534;48.784;9.190;2022-10-31T00:14:57;5.50;;;2.92;;
10963;SDS011;5534;48.784;9.190;2022-10-31T00:17:23;4.85;;;3.00;;
10963;SDS011;5534;48.784;9.190;2022-10-31T00:19:48;6.72;;;3.83;;
10963;SDS011;5534;48.784;9.190;2022-10-31T00:22:14;6.15;;;3.08;;
10963;SDS011;5534;48.784;9.190;2022-10-31T00:24:40;5.65;;;3.22;;
10963;SDS011;5534;48.784;9.190;2022-10-31T00:27:06;4.40;;;3.08;;
10963;SDS011;5534;48.784;9.190;2022-10-31T00:29:32;5.28;;;3.15;;
10963;SDS011;5534;48.784;9.190;2022-10-31T00:31:57;7.10;;;2.65;;
10963;SDS011;5534;48.784;9.190;2022-10-31T00:34:24;3.67;;;2.10;;
10963;SDS011;5534;48.784;9.190;2022-10-31T00:36:50;6.90;;;2.90;;
10963;SDS011;5534;48.784;9.190;2022-10-31T00:39:16;5.97;;;3.03;;
10963;SDS011;5534;48.784;9.190;2022-10-31T00:41:41;6.38;;;2.83;;
10963;SDS011;5534;48.784;9.190;2022-10-31T00:44:07;6.75;;;3.28;;
10963;SDS011;5534;48.784;9.190;2022-10-31T00:46:33;10.32;;;3.40;;
10963;SDS011;5534;48.784;9.190;2022-10-31T00:48:58;6.00;;;3.30;;
10963;SDS011;5534;48.784;9.190;2022-10-31T00:51:24;4.72;;;2.63;;
10963;SDS011;5534;48.784;9.190;2022-10-31T00:53:50;10.82;;;3.47;;
10963;SDS011;5534;48.784;9.190;2022-10-31T00:56:15;5.28;;;2.63;;
10963;SDS011;5534;48.784;9.190;2022-10-31T00:58:41;4.97;;;2.72;;
10963;SDS011;5534;48.784;9.190;2022-10-31T01:01:07;6.95;;;3.45;;
10963;SDS011;5534;48.784;9.190;2022-10-31T01:03:33;5.82;;;2.67;;
10963;SDS011;5534;48.784;9.190;2022-10-31T01:06:03;5.25;;;2.80;;
10963;SDS011;5534;48.784;9.190;2022-10-31T01:08:35;6.15;;;2.97;;
10963;SDS011;5534;48.784;9.190;2022-10-31T01:11:03;4.80;;;3.03;;
10963;SDS011;5534;48.784;9.190;2022-10-31T01:13:29;5.03;;;3.17;;
10963;SDS011;5534;48.784;9.190;2022-10-31T01:15:56;5.97;;;3.05;;
10963;SDS011;5534;48.784;9.190;2022-10-31T01:18:23;9.30;;;3.60;;
10963;SDS011;5534;48.784;9.190;2022-10-31T01:21:04;5.43;;;3.30;;
10963;SDS011;5534;48.784;9.190;2022-10-31T01:23:35;6.43;;;3.00;;
10963;SDS011;5534;48.784;9.190;2022-10-31T01:26:06;5.47;;;2.92;;
10963;SDS011;5534;48.784;9.190;2022-10-31T01:28:44;7.15;;;3.17;;
10963;SDS011;5534;48.784;9.190;2022-10-31T01:31:16;6.35;;;2.72;;
10963;SDS011;5534;48.784;9.190;2022-10-31T01:33:42;6.20;;;3.00;;
10963;SDS011;5534;48.784;9.190;2022-10-31T01:38:39;6.85;;;3.03;;
10963;SDS011;5534;48.784;9.190;2022-10-31T01:41:05;5.97;;;2.72;;
10963;SDS011;5534;48.784;9.190;2022-10-31T01:46:36;6.72;;;2.83;;
10963;SDS011;5534;48.784;9.190;2022-10-31T01:49:06;5.63;;;3.35;;
10963;SDS011;5534;48.784;9.190;2022-10-31T01:51:38;7.90;;;3.50;;
10963;SDS011;5534;48.784;9.190;2022-10-31T01:54:12;5.18;;;3.38;;
10963;SDS011;5534;48.784;9.190;2022-10-31T01:56:42;4.80;;;2.50;;
10963;SDS011;5534;48.784;9.190;2022-10-31T01:59:11;7.07;;;2.70;;
10963;SDS011;5534;48.784;9.190;2022-10-31T02:01:40;4.35;;;2.67;;
10963;SDS011;5534;48.784;9.190;2022-10-31T02:04:06;7.07;;;3.20;;
10963;SDS011;5534;48.784;9.190;2022-10-31T02:06:33;7.70;;;3.40;;
10963;SDS011;5534;48.784;9.190;2022-10-31T02:09:06;6.90;;;3.78;;
10963;SDS011;5534;48.784;9.190;2022-10-31T02:11:32;4.25;;;3.08;;
10963;SDS011;5534;48.784;9.190;2022-10-31T02:14:01;6.18;;;3.08;;
10963;SDS011;5534;48.784;9.190;2022-10-31T02:16:27;6.97;;;3.47;;
10963;SDS011;5534;48.784;9.190;2022-10-31T02:18:53;7.60;;;3.38;;
10963;SDS011;5534;48.784;9.190;2022-10-31T02:21:44;8.40;;;3.85;;
10963;SDS011;5534;48.784;9.190;2022-10-31T02:27:21;9.82;;;3.38;;
10963;SDS011;5534;48.784;9.190;2022-10-31T02:36:25;4.63;;;3.22;;
10963;SDS011;5534;48.784;9.190;2022-10-31T02:38:36;6.63;;;3.03;;
10963;SDS011;5534;48.784;9.190;2022-10-31T02:41:50;4.28;;;3.20;;
10963;SDS011;5534;48.784;9.190;2022-10-31T02:46:39;8.73;;;3.65;;
10963;SDS011;5534;48.784;9.190;2022-10-31T02:52:18;5.68;;;3.00;;
10963;SDS011;5534;48.784;9.190;2022-10-31T02:54:51;6.82;;;3.30;;
10963;SDS011;5534;48.784;9.190;2022-10-31T02:57:20;5.00;;;2.83;;
10963;SDS011;5534;48.784;9.190;2022-10-31T02:59:58;4.82;;;2.38;;
10963;SDS011;5534;48.784;9.190;2022-10-31T03:05:32;5.95;;;2.50;;
10963;SDS011;5534;48.784;9.190;2022-10-31T03:08:25;7.82;;;2.38;;
10963;SDS011;5534;48.784;9.190;2022-10-31T03:11:08;4.05;;;2.42;;
10963;SDS011;5534;48.784;9.190;2022-10-31T03:16:34;5.25;;;2.40;;
10963;SDS011;5534;48.784;9.190;2022-10-31T03:19:22;4.15;;;2.53;;
10963;SDS011;5534;48.784;9.190;2022-10-31T03:21:55;5.10;;;2.58;;
10963;SDS011;5534;48.784;9.190;2022-10-31T03:24:43;4.55;;;2.58;;
10963;SDS011;5534;48.784;9.190;2022-10-31T03:27:12;4.13;;;2.42;;
10963;SDS011;5534;48.784;9.190;2022-10-31T03:29:41;6.00;;;2.70;;
10963;SDS011;5534;48.784;9.190;2022-10-31T03:32:10;4.47;;;2.33;;
10963;SDS011;5534;48.784;9.190;2022-10-31T03:34:39;8.02;;;2.42;;
10963;SDS011;5534;48.784;9.190;2022-10-31T03:37:08;4.57;;;2.40;;
10963;SDS011;5534;48.784;9.190;2022-10-31T03:39:37;6.22;;;2.65;;
10963;SDS011;5534;48.784;9.190;2022-10-31T03:42:07;4.90;;;2.55;;
10963;SDS011;5534;48.784;9.190;2022-10-31T03:44:36;4.68;;;2.63;;
10963;SDS011;5534;48.784;9.190;2022-10-31T03:47:06;4.20;;;2.70;;
10963;SDS011;5534;48.784;9.190;2022-10-31T03:49:32;11.68;;;2.72;;
10963;SDS011;5534;48.784;9.190;2022-10-31T03:52:01;5.07;;;2.67;;
10963;SDS011;5534;48.784;9.190;2022-10-31T03:56:57;4.95;;;2.47;;
10963;SDS011;5534;48.784;9.190;2022-10-31T03:59:45;5.90;;;2.55;;
10963;SDS011;5534;48.784;9.190;2022-10-31T04:02:16;6.50;;;2.75;;
10963;SDS011;5534;48.784;9.190;2022-10-31T04:04:47;4.68;;;2.50;;
10963;SDS011;5534;48.784;9.190;2022-10-31T04:07:14;6.50;;;3.03;;
10963;SDS011;5534;48.784;9.190;2022-10-31T04:09:41;5.80;;;2.53;;
10963;SDS011;5534;48.784;9.190;2022-10-31T04:12:11;5.82;;;2.75;;
10963;SDS011;5534;48.784;9.190;2022-10-31T04:14:40;5.20;;;2.75;;
10963;SDS011;5534;48.784;9.190;2022-10-31T04:17:08;5.57;;;2.60;;
10963;SDS011;5534;48.784;9.190;2022-10-31T04:19:37;3.25;;;2.00;;
10963;SDS011;5534;48.784;9.190;2022-10-31T04:22:03;4.50;;;2.70;;
10963;SDS011;5534;48.784;9.190;2022-10-31T04:24:28;6.00;;;2.53;;
10963;SDS011;5534;48.784;9.190;2022-10-31T04:26:54;7.20;;;2.78;;
10963;SDS011;5534;48.784;9.190;2022-10-31T04:29:20;3.95;;;2.67;;
10963;SDS011;5534;48.784;9.190;2022-10-31T04:31:46;4.60;;;2.75;;
10963;SDS011;5534;48.784;9.190;2022-10-31T04:34:11;5.30;;;2.47;;
10963;SDS011;5534;48.784;9.190;2022-10-31T04:36:37;5.75;;;2.30;;
10963;SDS011;5534;48.784;9.190;2022-10-31T04:39:03;4.68;;;2.90;;
10963;SDS011;5534;48.784;9.190;2022-10-31T04:41:29;4.93;;;2.40;;
10963;SDS011;5534;48.784;9.190;2022-10-31T04:43:54;5.18;;;2.80;;
10963;SDS011;5534;48.784;9.190;2022-10-31T04:46:20;5.47;;;3.03;;
10963;SDS011;5534;48.784;9.190;2022-10-31T04:48:46;5.15;;;3.17;;
10963;SDS011;5534;48.784;9.190;2022-10-31T04:51:12;6.15;;;3.20;;
10963;SDS011;5534;48.784;9.190;2022-10-31T04:53:37;8.68;;;3.03;;
10963;SDS011;5534;48.784;9.190;2022-10-31T04:56:03;6.32;;;3.40;;
10963;SDS011;5534;48.784;9.190;2022-10-31T04:58:30;9.87;;;3.83;;
10963;SDS011;5534;48.784;9.190;2022-10-31T05:00:56;4.55;;;3.20;;
10963;SDS011;5534;48.784;9.190;2022-10-31T05:03:22;6.72;;;3.20;;
10963;SDS011;5534;48.784;9.190;2022-10-31T05:05:48;5.57;;;3.30;;
10963;SDS011;5534;48.784;9.190;2022-10-31T05:08:14;3.00;;;2.60;;
10963;SDS011;5534;48.784;9.190;2022-10-31T05:10:40;4.97;;;2.97;;
10963;SDS011;5534;48.784;9.190;2022-10-31T05:13:06;7.95;;;3.00;;
10963;SDS011;5534;48.784;9.190;2022-10-31T05:15:32;5.30;;;3.13;;
10963;SDS011;5534;48.784;9.190;2022-10-31T05:17:59;6.70;;;3.35;;
10963;SDS011;5534;48.784;9.190;2022-10-31T05:20:26;3.78;;;2.72;;
10963;SDS011;5534;48.784;9.190;2022-10-31T05:22:54;6.15;;;3.10;;
10963;SDS011;5534;48.784;9.190;2022-10-31T05:25:22;4.03;;;2.70;;
10963;SDS011;5534;48.784;9.190;2022-10-31T05:27:51;6.05;;;2.95;;
10963;SDS011;5534;48.784;9.190;2022-10-31T05:30:20;6.45;;;3.25;;
10963;SDS011;5534;48.784;9.190;2022-10-31T05:32:48;4.28;;;2.90;;
10963;SDS011;5534;48.784;9.190;2022-10-31T05:35:16;5.55;;;3.35;;
10963;SDS011;5534;48.784;9.190;2022-10-31T05:37:45;4.93;;;3.67;;
10963;SDS011;5534;48.784;9.190;2022-10-31T05:40:12;4.65;;;3.28;;
10963;SDS011;5534;48.784;9.190;2022-10-31T05:42:39;6.75;;;2.83;;
10963;SDS011;5534;48.784;9.190;2022-10-31T05:45:07;4.85;;;2.88;;
10963;SDS011;5534;48.784;9.190;2022-10-31T05:47:34;6.40;;;3.55;;
10963;SDS011;5534;48.784;9.190;2022-10-31T05:49:59;4.93;;;2.17;;
10963;SDS011;5534;48.784;9.190;2022-10-31T05:52:25;5.88;;;2.75;;
10963;SDS011;5534;48.784;9.190;2022-10-31T05:54:51;8.73;;;3.30;;
10963;SDS011;5534;48.784;9.190;2022-10-31T05:57:17;5.55;;;2.70;;
10963;SDS011;5534;48.784;9.190;2022-10-31T05:59:42;6.47;;;2.80;;
10963;SDS011;5534;48.784;9.190;2022-10-31T06:02:08;3.72;;;2.72;;
10963;SDS011;5534;48.784;9.190;2022-10-31T06:04:34;9.05;;;2.90;;
10963;SDS011;5534;48.784;9.190;2022-10-31T06:07:00;3.97;;;2.70;;
10963;SDS011;5534;48.784;9.190;2022-10-31T06:09:25;5.15;;;3.05;;
10963;SDS011;5534;48.784;9.190;2022-10-31T06:11:51;6.15;;;3.28;;
10963;SDS011;5534;48.784;9.190;2022-10-31T06:14:17;10.13;;;3.47;;
10963;SDS011;5534;48.784;9.190;2022-10-31T06:16:43;5.63;;;2.95;;
10963;SDS011;5534;48.784;9.190;2022-10-31T06:19:08;5.53;;;4.15;;
10963;SDS011;5534;48.784;9.190;2022-10-31T06:21:34;4.38;;;3.30;;
10963;SDS011;5534;48.784;9.190;2022-10-31T06:24:00;9.77;;;3.40;;
10963;SDS011;5534;48.784;9.190;2022-10-31T06:26:26;4.43;;;3.17;;
10963;SDS011;5534;48.784;9.190;2022-10-31T06:28:52;7.72;;;3.85;;
10963;SDS011;5534;48.784;9.190;2022-10-31T06:31:17;5.85;;;2.90;;
10963;SDS011;5534;48.784;9.190;2022-10-31T06:33:43;6.43;;;3.50;;
10963;SDS011;5534;48.784;9.190;2022-10-31T06:36:09;6.95;;;3.92;;
10963;SDS011;5534;48.784;9.190;2022-10-31T06:38:35;8.02;;;4.35;;
10963;SDS011;5534;48.784;9.190;2022-10-31T06:41:02;7.63;;;4.20;;
10963;SDS011;5534;48.784;9.190;2022-10-31T06:43:29;11.13;;;4.00;;
10963;SDS011;5534;48.784;9.190;2022-10-31T06:45:55;7.95;;;3.92;;
10963;SDS011;5534;48.784;9.190;2022-10-31T06:48:20;7.68;;;4.13;;
10963;SDS011;5534;48.784;9.190;2022-10-31T06:50:46;6.70;;;3.92;;
10963;SDS011;5534;48.784;9.190;2022-10-31T06:53:12;7.40;;;4.25;;
10963;SDS011;5534;48.784;9.190;2022-10-31T06:55:39;8.10;;;4.30;;
10963;SDS011;5534;48.784;9.190;2022-10-31T06:58:06;7.43;;;4.32;;
10963;SDS011;5534;48.784;9.190;2022-10-31T07:00:33;8.13;;;4.35;;
10963;SDS011;5534;48.784;9.190;2022-10-31T07:03:01;8.32;;;4.00;;
10963;SDS011;5534;48.784;9.190;2022-10-31T07:05:28;10.93;;;4.18;;
10963;SDS011;5534;48.784;9.190;2022-10-31T07:07:55;6.88;;;4.30;;
10963;SDS011;5534;48.784;9.190;2022-10-31T07:10:23;7.05;;;4.32;;
10963;SDS011;5534;48.784;9.190;2022-10-31T07:12:57;8.55;;;4.53;;
10963;SDS011;5534;48.784;9.190;2022-10-31T07:15:24;8.23;;;4.25;;
10963;SDS011;5534;48.784;9.190;2022-10-31T07:17:51;7.27;;;4.17;;
10963;SDS011;5534;48.784;9.190;2022-10-31T07:20:17;9.65;;;4.80;;
10963;SDS011;5534;48.784;9.190;2022-10-31T07:22:43;8.65;;;4.35;;
10963;SDS011;5534;48.784;9.190;2022-10-31T07:25:09;8.88;;;4.43;;
10963;SDS011;5534;48.784;9.190;2022-10-31T07:27:39;8.95;;;6.10;;
10963;SDS011;5534;48.784;9.190;2022-10-31T07:30:06;7.97;;;4.63;;
10963;SDS011;5534;48.784;9.190;2022-10-31T07:32:43;9.85;;;4.43;;
10963;SDS011;5534;48.784;9.190;2022-10-31T07:35:15;12.25;;;6.03;;
10963;SDS011;5534;48.784;9.190;2022-10-31T07:37:43;10.73;;;5.18;;
10963;SDS011;5534;48.784;9.190;2022-10-31T07:40:08;9.80;;;4.40;;
10963;SDS011;5534;48.784;9.190;2022-10-31T07:42:35;8.40;;;4.38;;
10963;SDS011;5534;48.784;9.190;2022-10-31T07:45:02;7.22;;;4.43;;
10963;SDS011;5534;48.784;9.190;2022-10-31T07:47:28;8.75;;;4.13;;
10963;SDS011;5534;48.784;9.190;2022-10-31T07:49:54;8.23;;;3.80;;
10963;SDS011;5534;48.784;9.190;2022-10-31T07:52:20;9.38;;;4.28;;
10963;SDS011;5534;48.784;9.190;2022-10-31T07:54:46;8.77;;;4.53;;
10963;SDS011;5534;48.784;9.190;2022-10-31T07:57:11;10.43;;;4.15;;
10963;SDS011;5534;48.784;9.190;2022-10-31T07:59:37;5.78;;;3.60;;
10963;SDS011;5534;48.784;9.190;2022-10-31T08:02:03;6.70;;;4.45;;
10963;SDS011;5534;48.784;9.190;2022-10-31T08:04:33;7.90;;;4.45;;
10963;SDS011;5534;48.784;9.190;2022-10-31T08:06:59;6.90;;;4.17;;
10963;SDS011;5534;48.784;9.190;2022-10-31T08:09:25;7.68;;;3.92;;
10963;SDS011;5534;48.784;9.190;2022-10-31T08:11:51;6.90;;;4.30;;
10963;SDS011;5534;48.784;9.190;2022-10-31T08:14:18;7.70;;;4.85;;
10963;SDS011;5534;48.784;9.190;2022-10-31T08:16:43;7.00;;;4.45;;
10963;SDS011;5534;48.784;9.190;2022-10-31T08:19:09;9.23;;;4.60;;
10963;SDS011;5534;48.784;9.190;2022-10-31T08:21:35;5.43;;;4.43;;
10963;SDS011;5534;48.784;9.190;2022-10-31T08:24:01;7.13;;;4.13;;
10963;SDS011;5534;48.784;9.190;2022-10-31T08:26:26;6.07;;;4.32;;
10963;SDS011;5534;48.784;9.190;2022-10-31T08:28:52;8.10;;;4.75;;
10963;SDS011;5534;48.784;9.190;2022-10-31T08:31:19;6.82;;;4.03;;
10963;SDS011;5534;48.784;9.190;2022-10-31T08:33:45;6.10;;;3.60;;
10963;SDS011;5534;48.784;9.190;2022-10-31T08:36:11;7.55;;;4.45;;
10963;SDS011;5534;48.784;9.190;2022-10-31T08:38:37;8.75;;;3.83;;
10963;SDS011;5534;48.784;9.190;2022-10-31T08:41:03;6.60;;;3.92;;
10963;SDS011;5534;48.784;9.190;2022-10-31T08:43:28;7.10;;;4.20;;
10963;SDS011;5534;48.784;9.190;2022-10-31T08:45:54;5.63;;;4.53;;
10963;SDS011;5534;48.784;9.190;2022-10-31T08:48:21;8.30;;;4.55;;
10963;SDS011;5534;48.784;9.190;2022-10-31T08:50:47;6.97;;;4.20;;
10963;SDS011;5534;48.784;9.190;2022-10-31T08:53:14;10.15;;;5.45;;
10963;SDS011;5534;48.784;9.190;2022-10-31T08:55:42;9.77;;;4.00;;
10963;SDS011;5534;48.784;9.190;2022-10-31T08:58:10;7.13;;;3.95;;
10963;SDS011;5534;48.784;9.190;2022-10-31T09:00:41;7.97;;;4.40;;
10963;SDS011;5534;48.784;9.190;2022-10-31T09:03:09;7.80;;;4.20;;
10963;SDS011;5534;48.784;9.190;2022-10-31T09:05:37;9.55;;;5.05;;
10963;SDS011;5534;48.784;9.190;2022-10-31T09:08:04;11.05;;;4.78;;
10963;SDS011;5534;48.784;9.190;2022-10-31T09:10:31;9.50;;;4.30;;
10963;SDS011;5534;48.784;9.190;2022-10-31T09:12:58;6.20;;;4.30;;
10963;SDS011;5534;48.784;9.190;2022-10-31T09:15:31;7.30;;;4.05;;
10963;SDS011;5534;48.784;9.190;2022-10-31T09:17:58;8.43;;;4.15;;
10963;SDS011;5534;48.784;9.190;2022-10-31T09:20:23;8.40;;;4.82;;
10963;SDS011;5534;48.784;9.190;2022-10-31T09:23:05;8.38;;;4.47;;
10963;SDS011;5534;48.784;9.190;2022-10-31T09:25:36;10.43;;;5.10;;
10963;SDS011;5534;48.784;9.190;2022-10-31T09:28:02;11.68;;;4.50;;
10963;SDS011;5534;48.784;9.190;2022-10-31T09:30:30;7.55;;;4.13;;
10963;SDS011;5534;48.784;9.190;2022-10-31T09:33:01;4.93;;;3.45;;
10963;SDS011;5534;48.784;9.190;2022-10-31T09:35:30;6.43;;;3.60;;
10963;SDS011;5534;48.784;9.190;2022-10-31T09:37:57;9.85;;;3.65;;
10963;SDS011;5534;48.784;9.190;2022-10-31T09:40:29;7.57;;;4.57;;
10963;SDS011;5534;48.784;9.190;2022-10-31T09:43:02;5.50;;;3.50;;
10963;SDS011;5534;48.784;9.190;2022-10-31T09:51:37;6.13;;;3.53;;
10963;SDS011;5534;48.784;9.190;2022-10-31T09:56:58;5.93;;;3.95;;
10963;SDS011;5534;48.784;9.190;2022-10-31T09:59:35;7.90;;;3.72;;
10963;SDS011;5534;48.784;9.190;2022-10-31T10:02:16;7.55;;;4.30;;
10963;SDS011;5534;48.784;9.190;2022-10-31T10:04:57;6.03;;;3.90;;
10963;SDS011;5534;48.784;9.190;2022-10-31T10:10:01;8.02;;;4.55;;
10963;SDS011;5534;48.784;9.190;2022-10-31T10:12:49;7.20;;;4.18;;
10963;SDS011;5534;48.784;9.190;2022-10-31T10:18:32;7.57;;;4.03;;
10963;SDS011;5534;48.784;9.190;2022-10-31T10:21:36;9.32;;;4.03;;
10963;SDS011;5534;48.784;9.190;2022-10-31T10:29:55;8.35;;;3.80;;
10963;SDS011;5534;48.784;9.190;2022-10-31T10:32:28;6.57;;;3.72;;
10963;SDS011;5534;48.784;9.190;2022-10-31T10:35:02;6.38;;;3.75;;
10963;SDS011;5534;48.784;9.190;2022-10-31T10:37:46;5.72;;;3.85;;
10963;SDS011;5534;48.784;9.190;2022-10-31T10:40:21;6.38;;;3.65;;
10963;SDS011;5534;48.784;9.190;2022-10-31T10:49:06;8.05;;;3.78;;
10963;SDS011;5534;48.784;9.190;2022-10-31T10:54:38;6.25;;;3.83;;
10963;SDS011;5534;48.784;9.190;2022-10-31T10:59:58;9.32;;;4.40;;
10963;SDS011;5534;48.784;9.190;2022-10-31T11:02:27;8.02;;;5.32;;
10963;SDS011;5534;48.784;9.190;2022-10-31T11:04:57;8.00;;;4.25;;
10963;SDS011;5534;48.784;9.190;2022-10-31T11:07:25;10.55;;;4.47;;
10963;SDS011;5534;48.784;9.190;2022-10-31T11:09:51;7.38;;;4.80;;
10963;SDS011;5534;48.784;9.190;2022-10-31T11:12:31;11.23;;;5.00;;
10963;SDS011;5534;48.784;9.190;2022-10-31T11:15:00;12.98;;;6.95;;
10963;SDS011;5534;48.784;9.190;2022-10-31T11:17:39;12.02;;;4.72;;
10963;SDS011;5534;48.784;9.190;2022-10-31T11:20:16;7.05;;;4.10;;
10963;SDS011;5534;48.784;9.190;2022-10-31T11:23:00;13.43;;;5.05;;
10963;SDS011;5534;48.784;9.190;2022-10-31T11:25:47;6.50;;;4.32;;
10963;SDS011;5534;48.784;9.190;2022-10-31T11:28:14;8.57;;;4.30;;
10963;SDS011;5534;48.784;9.190;2022-10-31T11:30:46;9.93;;;4.22;;
10963;SDS011;5534;48.784;9.190;2022-10-31T11:33:23;6.95;;;3.95;;
10963;SDS011;5534;48.784;9.190;2022-10-31T11:36:14;8.05;;;4.45;;
10963;SDS011;5534;48.784;9.190;2022-10-31T11:38:46;9.32;;;4.93;;
10963;SDS011;5534;48.784;9.190;2022-10-31T11:43:45;8.90;;;4.90;;
10963;SDS011;5534;48.784;9.190;2022-10-31T11:46:15;7.35;;;4.57;;
10963;SDS011;5534;48.784;9.190;2022-10-31T11:49:03;9.20;;;4.72;;
10963;SDS011;5534;48.784;9.190;2022-10-31T11:51:36;12.52;;;5.25;;
10963;SDS011;5534;48.784;9.190;2022-10-31T11:54:02;11.10;;;5.18;;
10963;SDS011;5534;48.784;9.190;2022-10-31T11:56:39;8.73;;;5.25;;
10963;SDS011;5534;48.784;9.190;2022-10-31T11:59:13;11.48;;;4.90;;
10963;SDS011;5534;48.784;9.190;2022-10-31T12:01:48;8.20;;;5.38;;
10963;SDS011;5534;48.784;9.190;2022-10-31T12:04:15;12.23;;;5.45;;
10963;SDS011;5534;48.784;9.190;2022-10-31T12:06:44;10.23;;;5.15;;
10963;SDS011;5534;48.784;9.190;2022-10-31T12:09:22;10.73;;;5.07;;
10963;SDS011;5534;48.784;9.190;2022-10-31T12:23:38;9.27;;;5.53;;
10963;SDS011;5534;48.784;9.190;2022-10-31T12:28:59;9.35;;;5.20;;
10963;SDS011;5534;48.784;9.190;2022-10-31T12:31:32;7.53;;;4.80;;
10963;SDS011;5534;48.784;9.190;2022-10-31T12:42:17;7.60;;;4.63;;
10963;SDS011;5534;48.784;9.190;2022-10-31T12:50:45;8.00;;;5.07;;
10963;SDS011;5534;48.784;9.190;2022-10-31T12:53:24;7.88;;;4.88;;
10963;SDS011;5534;48.784;9.190;2022-10-31T12:56:09;9.00;;;5.00;;
10963;SDS011;5534;48.784;9.190;2022-10-31T12:58:52;9.70;;;5.50;;
10963;SDS011;5534;48.784;9.190;2022-10-31T13:01:55;8.82;;;4.95;;
10963;SDS011;5534;48.784;9.190;2022-10-31T13:07:08;8.82;;;4.60;;
10963;SDS011;5534;48.784;9.190;2022-10-31T13:09:48;10.18;;;4.63;;
10963;SDS011;5534;48.784;9.190;2022-10-31T13:12:28;12.68;;;5.20;;
10963;SDS011;5534;48.784;9.190;2022-10-31T13:14:56;7.68;;;4.47;;
10963;SDS011;5534;48.784;9.190;2022-10-31T13:17:47;11.07;;;5.25;;
10963;SDS011;5534;48.784;9.190;2022-10-31T13:20:25;13.63;;;4.72;;
10963;SDS011;5534;48.784;9.190;2022-10-31T13:23:31;9.80;;;4.90;;
10963;SDS011;5534;48.784;9.190;2022-10-31T13:25:56;10.48;;;6.18;;
10963;SDS011;5534;48.784;9.190;2022-10-31T13:31:08;8.80;;;5.20;;
10963;SDS011;5534;48.784;9.190;2022-10-31T13:33:37;12.93;;;5.47;;
10963;SDS011;5534;48.784;9.190;2022-10-31T13:36:31;8.52;;;5.03;;
10963;SDS011;5534;48.784;9.190;2022-10-31T13:41:40;10.18;;;4.97;;
10963;SDS011;5534;48.784;9.190;2022-10-31T13:44:18;6.85;;;4.45;;
10963;SDS011;5534;48.784;9.190;2022-10-31T13:46:50;10.85;;;6.15;;
10963;SDS011;5534;48.784;9.190;2022-10-31T13:54:49;10.50;;;4.70;;
10963;SDS011;5534;48.784;9.190;2022-10-31T13:59:54;7.78;;;4.78;;
10963;SDS011;5534;48.784;9.190;2022-10-31T14:02:26;7.22;;;4.40;;
10963;SDS011;5534;48.784;9.190;2022-10-31T14:05:01;9.50;;;4.55;;
10963;SDS011;5534;48.784;9.190;2022-10-31T14:07:46;10.00;;;4.93;;
10963;SDS011;5534;48.784;9.190;2022-10-31T14:10:25;7.88;;;4.45;;
10963;SDS011;5534;48.784;9.190;2022-10-31T14:13:05;6.72;;;4.30;;
10963;SDS011;5534;48.784;9.190;2022-10-31T14:15:31;8.52;;;4.60;;
10963;SDS011;5534;48.784;9.190;2022-10-31T14:17:58;9.73;;;4.60;;
10963;SDS011;5534;48.784;9.190;2022-10-31T14:26:16;7.85;;;5.63;;
10963;SDS011;5534;48.784;9.190;2022-10-31T14:28:55;14.60;;;5.63;;
10963;SDS011;5534;48.784;9.190;2022-10-31T14:31:29;9.38;;;5.45;;
10963;SDS011;5534;48.784;9.190;2022-10-31T14:34:01;9.40;;;5.25;;
10963;SDS011;5534;48.784;9.190;2022-10-31T14:53:10;9.98;;;5.45;;
10963;SDS011;5534;48.784;9.190;2022-10-31T14:55:46;9.25;;;5.30;;
10963;SDS011;5534;48.784;9.190;2022-10-31T14:58:19;9.70;;;5.28;;
10963;SDS011;5534;48.784;9.190;2022-10-31T15:00:48;11.18;;;6.25;;
10963;SDS011;5534;48.784;9.190;2022-10-31T15:03:20;11.95;;;5.60;;
10963;SDS011;5534;48.784;9.190;2022-10-31T15:06:03;10.13;;;5.53;;
10963;SDS011;5534;48.784;9.190;2022-10-31T15:08:44;9.18;;;5.32;;
10963;SDS011;5534;48.784;9.190;2022-10-31T15:11:25;11.90;;;5.45;;
10963;SDS011;5534;48.784;9.190;2022-10-31T15:13:53;13.00;;;6.70;;
10963;SDS011;5534;48.784;9.190;2022-10-31T15:16:28;11.43;;;5.47;;
10963;SDS011;5534;48.784;9.190;2022-10-31T15:18:59;10.18;;;5.88;;
10963;SDS011;5534;48.784;9.190;2022-10-31T15:21:29;11.25;;;5.80;;
10963;SDS011;5534;48.784;9.190;2022-10-31T15:23:57;13.15;;;5.75;;
10963;SDS011;5534;48.784;9.190;2022-10-31T15:26:32;13.77;;;6.40;;
10963;SDS011;5534;48.784;9.190;2022-10-31T15:29:10;12.40;;;5.15;;
10963;SDS011;5534;48.784;9.190;2022-10-31T15:31:37;12.77;;;6.38;;
10963;SDS011;5534;48.784;9.190;2022-10-31T15:34:12;10.55;;;6.07;;
10963;SDS011;5534;48.784;9.190;2022-10-31T15:36:47;17.50;;;6.47;;
10963;SDS011;5534;48.784;9.190;2022-10-31T15:39:14;13.85;;;5.63;;
10963;SDS011;5534;48.784;9.190;2022-10-31T15:41:51;11.40;;;5.95;;
10963;SDS011;5534;48.784;9.190;2022-10-31T15:44:31;11.82;;;6.30;;
10963;SDS011;5534;48.784;9.190;2022-10-31T15:47:05;10.30;;;5.35;;
10963;SDS011;5534;48.784;9.190;2022-10-31T15:49:41;14.38;;;5.57;;
10963;SDS011;5534;48.784;9.190;2022-10-31T15:52:35;13.88;;;5.60;;
10963;SDS011;5534;48.784;9.190;2022-10-31T15:55:21;12.50;;;6.38;;
10963;SDS011;5534;48.784;9.190;2022-10-31T15:57:51;14.43;;;6.57;;
10963;SDS011;5534;48.784;9.190;2022-10-31T16:02:48;13.80;;;6.43;;
10963;SDS011;5534;48.784;9.190;2022-10-31T16:05:14;10.57;;;5.53;;
10963;SDS011;5534;48.784;9.190;2022-10-31T16:07:47;10.38;;;5.53;;
10963;SDS011;5534;48.784;9.190;2022-10-31T16:10:24;11.13;;;5.95;;
10963;SDS011;5534;48.784;9.190;2022-10-31T16:12:51;7.85;;;5.18;;
10963;SDS011;5534;48.784;9.190;2022-10-31T16:15:19;13.45;;;5.60;;
10963;SDS011;5534;48.784;9.190;2022-10-31T16:17:49;11.90;;;5.85;;
10963;SDS011;5534;48.784;9.190;2022-10-31T16:20:21;12.35;;;6.00;;
10963;SDS011;5534;48.784;9.190;2022-10-31T16:22:52;9.93;;;4.93;;
10963;SDS011;5534;48.784;9.190;2022-10-31T16:27:53;10.07;;;5.18;;
10963;SDS011;5534;48.784;9.190;2022-10-31T16:30:39;8.55;;;5.13;;
10963;SDS011;5534;48.784;9.190;2022-10-31T16:36:28;10.73;;;5.93;;
10963;SDS011;5534;48.784;9.190;2022-10-31T16:38:53;11.52;;;5.40;;
10963;SDS011;5534;48.784;9.190;2022-10-31T16:41:20;16.05;;;5.30;;
10963;SDS011;5534;48.784;9.190;2022-10-31T16:43:46;10.88;;;5.80;;
10963;SDS011;5534;48.784;9.190;2022-10-31T16:46:12;12.68;;;6.03;;
10963;SDS011;5534;48.784;9.190;2022-10-31T16:48:40;9.90;;;5.85;;
10963;SDS011;5534;48.784;9.190;2022-10-31T16:51:08;10.73;;;5.85;;
10963;SDS011;5534;48.784;9.190;2022-10-31T16:53:34;11.40;;;5.93;;
10963;SDS011;5534;48.784;9.190;2022-10-31T16:56:02;15.02;;;6.70;;
10963;SDS011;5534;48.784;9.190;2022-10-31T16:58:29;10.88;;;5.63;;
10963;SDS011;5534;48.784;9.190;2022-10-31T17:00:58;9.73;;;5.80;;
10963;SDS011;5534;48.784;9.190;2022-10-31T17:03:25;14.23;;;5.65;;
10963;SDS011;5534;48.784;9.190;2022-10-31T17:05:52;15.35;;;9.38;;
10963;SDS011;5534;48.784;9.190;2022-10-31T17:08:20;14.80;;;7.38;;
10963;SDS011;5534;48.784;9.190;2022-10-31T17:10:46;13.95;;;7.18;;
10963;SDS011;5534;48.784;9.190;2022-10-31T17:13:20;14.18;;;6.70;;
10963;SDS011;5534;48.784;9.190;2022-10-31T17:15:51;8.68;;;5.63;;
10963;SDS011;5534;48.784;9.190;2022-10-31T17:18:19;12.55;;;6.13;;
10963;SDS011;5534;48.784;9.190;2022-10-31T17:20:45;12.70;;;5.90;;
10963;SDS011;5534;48.784;9.190;2022-10-31T17:23:12;10.25;;;6.00;;
10963;SDS011;5534;48.784;9.190;2022-10-31T17:25:40;10.68;;;5.63;;
10963;SDS011;5534;48.784;9.190;2022-10-31T17:28:07;12.70;;;6.18;;
10963;SDS011;5534;48.784;9.190;2022-10-31T17:30:37;12.48;;;7.10;;
10963;SDS011;5534;48.784;9.190;2022-10-31T17:33:03;10.10;;;6.07;;
10963;SDS011;5534;48.784;9.190;2022-10-31T17:35:29;12.10;;;6.63;;